sensor_id;sensor_type;location;lat;lon;timestamp;P1;durP1;ratioP1;P2;durP2;ratioP2
25667;SDS011;18003;-33.830;151.202;2022-08-19T00:02:28;2.17;;;1.17;;
25667;SDS011;18003;-33.830;151.202;2022-08-19T00:04:58;1.40;;;1.20;;
25667;SDS011;18003;-33.830;151.202;2022-08-19T00:07:28;1.10;;;1.00;;
25667;SDS011;18003;-33.830;151.202;2022-08-19T00:09:59;3.10;;;1.20;;
25667;SDS011;18003;-33.830;151.202;2022-08-19T00:12:29;1.50;;;0.90;;
25667;SDS011;18003;-33.830;151.202;2022-08-19T00:14:59;1.35;;;1.00;;
25667;SDS011;18003;-33.830;151.202;2022-08-19T00:17:29;2.77;;;1.20;;
25667;SDS011;18003;-33.830;151.202;2022-08-19T00:19:59;1.42;;;1.15;;
25667;SDS011;18003;-33.830;151.202;2022-08-19T00:22:29;1.40;;;1.10;;
25667;SDS011;18003;-33.830;151.202;2022-08-19T00:25:00;1.95;;;1.20;;
25667;SDS011;18003;-33.830;151.202;2022-08-19T00:27:31;1.30;;;1.20;;
25667;SDS011;18003;-33.830;151.202;2022-08-19T00:30:01;1.95;;;1.25;;
25667;SDS011;18003;-33.830;151.202;2022-08-19T00:32:33;1.62;;;1.40;;
25667;SDS011;18003;-33.830;151.202;2022-08-19T00:35:03;1.27;;;1.10;;
25667;SDS011;18003;-33.830;151.202;2022-08-19T00:37:34;1.65;;;1.10;;
25667;SDS011;18003;-33.830;151.202;2022-08-19T00:40:05;1.30;;;1.20;;
25667;SDS011;18003;-33.830;151.202;2022-08-19T00:42:35;1.50;;;1.10;;
25667;SDS011;18003;-33.830;151.202;2022-08-19T00:45:09;4.60;;;3.50;;
25667;SDS011;18003;-33.830;151.202;2022-08-19T00:47:37;1.95;;;1.85;;
25667;SDS011;18003;-33.830;151.202;2022-08-19T00:50:08;1.80;;;1.70;;
25667;SDS011;18003;-33.830;151.202;2022-08-19T00:52:44;2.55;;;1.30;;
25667;SDS011;18003;-33.830;151.202;2022-08-19T00:57:42;1.40;;;1.12;;
25667;SDS011;18003;-33.830;151.202;2022-08-19T01:00:13;2.17;;;1.10;;
25667;SDS011;18003;-33.830;151.202;2022-08-19T01:02:45;1.65;;;1.05;;
25667;SDS011;18003;-33.830;151.202;2022-08-19T01:05:17;1.10;;;1.00;;
25667;SDS011;18003;-33.830;151.202;2022-08-19T01:10:18;17.23;;;2.60;;
25667;SDS011;18003;-33.830;151.202;2022-08-19T01:15:20;13.58;;;2.70;;
25667;SDS011;18003;-33.830;151.202;2022-08-19T01:20:19;8.13;;;1.62;;
25667;SDS011;18003;-33.830;151.202;2022-08-19T01:22:54;5.05;;;1.50;;
25667;SDS011;18003;-33.830;151.202;2022-08-19T01:25:32;2.45;;;1.35;;
25667;SDS011;18003;-33.830;151.202;2022-08-19T01:27:58;2.22;;;1.30;;
25667;SDS011;18003;-33.830;151.202;2022-08-19T01:30:31;1.77;;;1.10;;
25667;SDS011;18003;-33.830;151.202;2022-08-19T01:35:30;1.30;;;1.00;;
25667;SDS011;18003;-33.830;151.202;2022-08-19T01:38:01;1.10;;;0.80;;
25667;SDS011;18003;-33.830;151.202;2022-08-19T01:40:37;1.05;;;1.00;;
25667;SDS011;18003;-33.830;151.202;2022-08-19T01:43:08;1.85;;;1.10;;
25667;SDS011;18003;-33.830;151.202;2022-08-19T01:45:38;1.10;;;1.00;;
25667;SDS011;18003;-33.830;151.202;2022-08-19T01:48:08;1.32;;;0.80;;
25667;SDS011;18003;-33.830;151.202;2022-08-19T01:50:38;0.88;;;0.80;;
25667;SDS011;18003;-33.830;151.202;2022-08-19T01:53:09;0.80;;;0.80;;
25667;SDS011;18003;-33.830;151.202;2022-08-19T01:58:13;1.87;;;0.80;;
25667;SDS011;18003;-33.830;151.202;2022-08-19T02:00:47;1.27;;;1.00;;
25667;SDS011;18003;-33.830;151.202;2022-08-19T02:03:18;0.93;;;0.93;;
25667;SDS011;18003;-33.830;151.202;2022-08-19T02:05:52;2.33;;;0.90;;
25667;SDS011;18003;-33.830;151.202;2022-08-19T02:08:20;0.78;;;0.78;;
25667;SDS011;18003;-33.830;151.202;2022-08-19T02:10:50;1.00;;;0.90;;
25667;SDS011;18003;-33.830;151.202;2022-08-19T02:13:22;0.80;;;0.80;;
25667;SDS011;18003;-33.830;151.202;2022-08-19T02:15:53;0.95;;;0.90;;
25667;SDS011;18003;-33.830;151.202;2022-08-19T02:18:23;3.10;;;0.90;;
25667;SDS011;18003;-33.830;151.202;2022-08-19T02:20:53;1.92;;;0.80;;
25667;SDS011;18003;-33.830;151.202;2022-08-19T02:23:23;0.90;;;0.90;;
25667;SDS011;18003;-33.830;151.202;2022-08-19T02:25:53;2.25;;;1.10;;
25667;SDS011;18003;-33.830;151.202;2022-08-19T02:28:23;4.40;;;1.20;;
25667;SDS011;18003;-33.830;151.202;2022-08-19T02:30:54;1.45;;;1.30;;
25667;SDS011;18003;-33.830;151.202;2022-08-19T02:33:25;0.90;;;0.90;;
25667;SDS011;18003;-33.830;151.202;2022-08-19T02:35:55;0.98;;;0.98;;
25667;SDS011;18003;-33.830;151.202;2022-08-19T02:38:25;1.00;;;1.00;;
25667;SDS011;18003;-33.830;151.202;2022-08-19T02:40:57;1.87;;;1.00;;
25667;SDS011;18003;-33.830;151.202;2022-08-19T02:43:27;1.15;;;0.90;;
25667;SDS011;18003;-33.830;151.202;2022-08-19T02:45:58;2.05;;;1.00;;
25667;SDS011;18003;-33.830;151.202;2022-08-19T02:48:28;2.42;;;1.27;;
25667;SDS011;18003;-33.830;151.202;2022-08-19T02:50:59;1.23;;;1.13;;
25667;SDS011;18003;-33.830;151.202;2022-08-19T02:53:29;1.20;;;1.02;;
25667;SDS011;18003;-33.830;151.202;2022-08-19T02:55:59;1.10;;;1.10;;
25667;SDS011;18003;-33.830;151.202;2022-08-19T02:58:29;1.20;;;1.00;;
25667;SDS011;18003;-33.830;151.202;2022-08-19T03:00:59;1.12;;;1.10;;
25667;SDS011;18003;-33.830;151.202;2022-08-19T03:03:29;1.30;;;1.20;;
25667;SDS011;18003;-33.830;151.202;2022-08-19T03:06:06;1.20;;;1.10;;
25667;SDS011;18003;-33.830;151.202;2022-08-19T03:08:37;1.27;;;1.17;;
25667;SDS011;18003;-33.830;151.202;2022-08-19T03:11:29;1.05;;;1.00;;
25667;SDS011;18003;-33.830;151.202;2022-08-19T03:13:42;1.02;;;1.02;;
25667;SDS011;18003;-33.830;151.202;2022-08-19T03:16:12;1.10;;;1.10;;
25667;SDS011;18003;-33.830;151.202;2022-08-19T03:18:42;1.10;;;1.00;;
25667;SDS011;18003;-33.830;151.202;2022-08-19T03:21:19;0.95;;;0.95;;
25667;SDS011;18003;-33.830;151.202;2022-08-19T03:23:53;1.20;;;1.10;;
25667;SDS011;18003;-33.830;151.202;2022-08-19T03:26:25;1.25;;;1.15;;
25667;SDS011;18003;-33.830;151.202;2022-08-19T03:28:56;2.05;;;1.10;;
25667;SDS011;18003;-33.830;151.202;2022-08-19T03:31:27;1.22;;;1.12;;
25667;SDS011;18003;-33.830;151.202;2022-08-19T03:33:58;2.00;;;1.10;;
25667;SDS011;18003;-33.830;151.202;2022-08-19T03:36:28;0.90;;;0.90;;
25667;SDS011;18003;-33.830;151.202;2022-08-19T03:38:58;1.15;;;1.05;;
25667;SDS011;18003;-33.830;151.202;2022-08-19T03:41:30;0.90;;;0.90;;
25667;SDS011;18003;-33.830;151.202;2022-08-19T03:44:01;1.20;;;1.10;;
25667;SDS011;18003;-33.830;151.202;2022-08-19T03:46:35;1.12;;;1.07;;
25667;SDS011;18003;-33.830;151.202;2022-08-19T03:49:05;1.75;;;0.93;;
25667;SDS011;18003;-33.830;151.202;2022-08-19T03:51:37;1.47;;;1.00;;
25667;SDS011;18003;-33.830;151.202;2022-08-19T03:54:07;1.05;;;0.90;;
25667;SDS011;18003;-33.830;151.202;2022-08-19T03:56:38;1.02;;;1.00;;
25667;SDS011;18003;-33.830;151.202;2022-08-19T03:59:10;2.20;;;1.10;;
25667;SDS011;18003;-33.830;151.202;2022-08-19T04:01:41;1.10;;;1.10;;
25667;SDS011;18003;-33.830;151.202;2022-08-19T04:04:11;1.12;;;1.10;;
25667;SDS011;18003;-33.830;151.202;2022-08-19T04:06:42;1.02;;;1.02;;
25667;SDS011;18003;-33.830;151.202;2022-08-19T04:09:13;1.25;;;1.05;;
25667;SDS011;18003;-33.830;151.202;2022-08-19T04:11:45;1.25;;;1.10;;
25667;SDS011;18003;-33.830;151.202;2022-08-19T04:14:16;1.00;;;1.00;;
25667;SDS011;18003;-33.830;151.202;2022-08-19T04:16:47;2.62;;;0.98;;
25667;SDS011;18003;-33.830;151.202;2022-08-19T04:19:18;1.47;;;0.90;;
25667;SDS011;18003;-33.830;151.202;2022-08-19T04:21:49;1.32;;;1.10;;
25667;SDS011;18003;-33.830;151.202;2022-08-19T04:24:21;1.20;;;1.10;;
25667;SDS011;18003;-33.830;151.202;2022-08-19T04:26:51;1.30;;;1.10;;
25667;SDS011;18003;-33.830;151.202;2022-08-19T04:29:23;2.40;;;1.00;;
25667;SDS011;18003;-33.830;151.202;2022-08-19T04:31:54;1.27;;;0.90;;
25667;SDS011;18003;-33.830;151.202;2022-08-19T04:34:26;0.93;;;0.93;;
25667;SDS011;18003;-33.830;151.202;2022-08-19T04:36:57;0.90;;;0.90;;
25667;SDS011;18003;-33.830;151.202;2022-08-19T04:39:29;1.00;;;0.95;;
25667;SDS011;18003;-33.830;151.202;2022-08-19T04:42:16;1.10;;;1.10;;
25667;SDS011;18003;-33.830;151.202;2022-08-19T04:45:05;1.30;;;1.20;;
25667;SDS011;18003;-33.830;151.202;2022-08-19T04:47:37;1.10;;;1.10;;
25667;SDS011;18003;-33.830;151.202;2022-08-19T04:50:08;1.00;;;1.00;;
25667;SDS011;18003;-33.830;151.202;2022-08-19T04:52:38;1.65;;;1.10;;
25667;SDS011;18003;-33.830;151.202;2022-08-19T04:55:10;1.30;;;1.15;;
25667;SDS011;18003;-33.830;151.202;2022-08-19T04:57:41;1.10;;;1.00;;
25667;SDS011;18003;-33.830;151.202;2022-08-19T05:00:11;1.17;;;1.05;;
25667;SDS011;18003;-33.830;151.202;2022-08-19T05:02:41;1.17;;;1.10;;
25667;SDS011;18003;-33.830;151.202;2022-08-19T05:05:11;2.27;;;1.37;;
25667;SDS011;18003;-33.830;151.202;2022-08-19T05:07:41;1.15;;;1.10;;
25667;SDS011;18003;-33.830;151.202;2022-08-19T05:10:11;1.15;;;1.15;;
25667;SDS011;18003;-33.830;151.202;2022-08-19T05:12:42;1.10;;;1.10;;
25667;SDS011;18003;-33.830;151.202;2022-08-19T05:15:12;1.10;;;1.00;;
25667;SDS011;18003;-33.830;151.202;2022-08-19T05:17:42;2.22;;;0.90;;
25667;SDS011;18003;-33.830;151.202;2022-08-19T05:20:13;39.48;;;2.62;;
25667;SDS011;18003;-33.830;151.202;2022-08-19T05:23:01;13.35;;;1.25;;
25667;SDS011;18003;-33.830;151.202;2022-08-19T05:25:31;10.53;;;1.32;;
25667;SDS011;18003;-33.830;151.202;2022-08-19T05:28:01;6.00;;;1.00;;
25667;SDS011;18003;-33.830;151.202;2022-08-19T05:30:31;6.78;;;1.20;;
25667;SDS011;18003;-33.830;151.202;2022-08-19T05:33:01;5.15;;;1.30;;
25667;SDS011;18003;-33.830;151.202;2022-08-19T05:35:31;2.20;;;1.57;;
25667;SDS011;18003;-33.830;151.202;2022-08-19T05:40:57;6.05;;;1.45;;
25667;SDS011;18003;-33.830;151.202;2022-08-19T05:43:28;6.33;;;1.40;;
25667;SDS011;18003;-33.830;151.202;2022-08-19T05:45:58;3.22;;;1.20;;
25667;SDS011;18003;-33.830;151.202;2022-08-19T05:48:28;1.07;;;1.07;;
25667;SDS011;18003;-33.830;151.202;2022-08-19T05:50:58;2.55;;;1.10;;
25667;SDS011;18003;-33.830;151.202;2022-08-19T05:53:28;7.67;;;1.20;;
25667;SDS011;18003;-33.830;151.202;2022-08-19T05:56:03;0.90;;;0.90;;
25667;SDS011;18003;-33.830;151.202;2022-08-19T05:58:33;20.55;;;3.05;;
25667;SDS011;18003;-33.830;151.202;2022-08-19T06:01:04;15.80;;;2.45;;
25667;SDS011;18003;-33.830;151.202;2022-08-19T06:03:36;10.50;;;2.30;;
25667;SDS011;18003;-33.830;151.202;2022-08-19T06:06:07;10.48;;;2.02;;
25667;SDS011;18003;-33.830;151.202;2022-08-19T06:08:39;5.92;;;1.70;;
25667;SDS011;18003;-33.830;151.202;2022-08-19T06:11:14;6.53;;;1.82;;
25667;SDS011;18003;-33.830;151.202;2022-08-19T06:13:49;3.02;;;1.65;;
25667;SDS011;18003;-33.830;151.202;2022-08-19T06:18:49;3.42;;;1.40;;
25667;SDS011;18003;-33.830;151.202;2022-08-19T06:21:25;2.90;;;1.20;;
25667;SDS011;18003;-33.830;151.202;2022-08-19T06:26:24;1.10;;;1.10;;
25667;SDS011;18003;-33.830;151.202;2022-08-19T06:28:54;1.27;;;1.00;;
25667;SDS011;18003;-33.830;151.202;2022-08-19T06:31:25;2.00;;;1.15;;
25667;SDS011;18003;-33.830;151.202;2022-08-19T06:33:57;1.35;;;1.25;;
25667;SDS011;18003;-33.830;151.202;2022-08-19T06:36:29;1.87;;;1.30;;
25667;SDS011;18003;-33.830;151.202;2022-08-19T06:39:01;1.10;;;1.10;;
25667;SDS011;18003;-33.830;151.202;2022-08-19T06:41:36;1.75;;;1.20;;
25667;SDS011;18003;-33.830;151.202;2022-08-19T06:44:08;1.10;;;1.10;;
25667;SDS011;18003;-33.830;151.202;2022-08-19T06:46:39;1.98;;;1.30;;
25667;SDS011;18003;-33.830;151.202;2022-08-19T06:49:09;1.30;;;1.20;;
25667;SDS011;18003;-33.830;151.202;2022-08-19T06:51:44;1.30;;;1.20;;
25667;SDS011;18003;-33.830;151.202;2022-08-19T06:54:15;1.02;;;1.00;;
25667;SDS011;18003;-33.830;151.202;2022-08-19T06:56:46;1.07;;;0.98;;
25667;SDS011;18003;-33.830;151.202;2022-08-19T06:59:17;1.12;;;1.00;;
25667;SDS011;18003;-33.830;151.202;2022-08-19T07:01:49;1.85;;;1.10;;
25667;SDS011;18003;-33.830;151.202;2022-08-19T07:04:21;3.12;;;1.37;;
25667;SDS011;18003;-33.830;151.202;2022-08-19T07:06:59;4.05;;;1.60;;
25667;SDS011;18003;-33.830;151.202;2022-08-19T07:09:32;4.78;;;1.62;;
25667;SDS011;18003;-33.830;151.202;2022-08-19T07:12:03;6.12;;;1.90;;
25667;SDS011;18003;-33.830;151.202;2022-08-19T07:14:35;6.50;;;1.95;;
25667;SDS011;18003;-33.830;151.202;2022-08-19T07:17:07;3.75;;;1.80;;
25667;SDS011;18003;-33.830;151.202;2022-08-19T07:19:38;5.97;;;1.87;;
25667;SDS011;18003;-33.830;151.202;2022-08-19T07:22:09;7.42;;;1.75;;
25667;SDS011;18003;-33.830;151.202;2022-08-19T07:24:45;4.50;;;1.70;;
25667;SDS011;18003;-33.830;151.202;2022-08-19T07:27:10;4.25;;;1.80;;
25667;SDS011;18003;-33.830;151.202;2022-08-19T07:29:41;3.98;;;1.80;;
25667;SDS011;18003;-33.830;151.202;2022-08-19T07:32:12;4.50;;;1.87;;
25667;SDS011;18003;-33.830;151.202;2022-08-19T07:34:42;6.87;;;2.62;;
25667;SDS011;18003;-33.830;151.202;2022-08-19T07:37:12;9.58;;;2.40;;
25667;SDS011;18003;-33.830;151.202;2022-08-19T07:39:47;4.58;;;2.10;;
25667;SDS011;18003;-33.830;151.202;2022-08-19T07:42:14;6.08;;;1.80;;
25667;SDS011;18003;-33.830;151.202;2022-08-19T07:44:45;3.90;;;1.80;;
25667;SDS011;18003;-33.830;151.202;2022-08-19T07:47:15;3.08;;;1.40;;
25667;SDS011;18003;-33.830;151.202;2022-08-19T07:49:45;1.92;;;1.22;;
25667;SDS011;18003;-33.830;151.202;2022-08-19T07:52:15;1.57;;;1.25;;
25667;SDS011;18003;-33.830;151.202;2022-08-19T07:54:45;3.45;;;1.30;;
25667;SDS011;18003;-33.830;151.202;2022-08-19T07:57:16;4.43;;;1.47;;
25667;SDS011;18003;-33.830;151.202;2022-08-19T07:59:46;1.82;;;1.45;;
25667;SDS011;18003;-33.830;151.202;2022-08-19T08:02:15;1.92;;;1.32;;
25667;SDS011;18003;-33.830;151.202;2022-08-19T08:04:45;2.17;;;1.12;;
25667;SDS011;18003;-33.830;151.202;2022-08-19T08:07:32;3.45;;;1.22;;
25667;SDS011;18003;-33.830;151.202;2022-08-19T08:10:19;3.95;;;1.07;;
25667;SDS011;18003;-33.830;151.202;2022-08-19T08:12:49;3.22;;;1.30;;
25667;SDS011;18003;-33.830;151.202;2022-08-19T08:15:19;3.17;;;1.40;;
25667;SDS011;18003;-33.830;151.202;2022-08-19T08:17:49;1.60;;;1.00;;
25667;SDS011;18003;-33.830;151.202;2022-08-19T08:20:19;2.77;;;1.15;;
25667;SDS011;18003;-33.830;151.202;2022-08-19T08:22:50;12.23;;;1.45;;
25667;SDS011;18003;-33.830;151.202;2022-08-19T08:25:37;2.27;;;1.10;;
25667;SDS011;18003;-33.830;151.202;2022-08-19T08:28:07;1.25;;;1.00;;
25667;SDS011;18003;-33.830;151.202;2022-08-19T08:30:37;2.95;;;1.15;;
25667;SDS011;18003;-33.830;151.202;2022-08-19T08:33:08;2.90;;;0.90;;
25667;SDS011;18003;-33.830;151.202;2022-08-19T08:35:39;1.42;;;0.90;;
25667;SDS011;18003;-33.830;151.202;2022-08-19T08:38:09;1.45;;;0.88;;
25667;SDS011;18003;-33.830;151.202;2022-08-19T08:51:15;1.95;;;1.22;;
25667;SDS011;18003;-33.830;151.202;2022-08-19T08:53:40;1.30;;;1.17;;
25667;SDS011;18003;-33.830;151.202;2022-08-19T08:56:12;1.52;;;1.20;;
25667;SDS011;18003;-33.830;151.202;2022-08-19T09:01:21;1.77;;;1.32;;
25667;SDS011;18003;-33.830;151.202;2022-08-19T09:03:51;4.40;;;1.60;;
25667;SDS011;18003;-33.830;151.202;2022-08-19T09:06:27;1.98;;;1.40;;
25667;SDS011;18003;-33.830;151.202;2022-08-19T09:09:16;2.15;;;1.47;;
25667;SDS011;18003;-33.830;151.202;2022-08-19T09:11:56;2.35;;;1.10;;
25667;SDS011;18003;-33.830;151.202;2022-08-19T09:14:49;1.65;;;1.30;;
25667;SDS011;18003;-33.830;151.202;2022-08-19T09:17:29;2.27;;;1.22;;
25667;SDS011;18003;-33.830;151.202;2022-08-19T09:20:03;1.27;;;1.17;;
25667;SDS011;18003;-33.830;151.202;2022-08-19T09:22:34;1.65;;;1.20;;
25667;SDS011;18003;-33.830;151.202;2022-08-19T09:25:08;3.65;;;1.35;;
25667;SDS011;18003;-33.830;151.202;2022-08-19T09:27:37;1.95;;;1.05;;
25667;SDS011;18003;-33.830;151.202;2022-08-19T09:30:08;3.77;;;1.40;;
25667;SDS011;18003;-33.830;151.202;2022-08-19T09:32:39;1.65;;;1.20;;
25667;SDS011;18003;-33.830;151.202;2022-08-19T09:35:10;2.33;;;1.30;;
25667;SDS011;18003;-33.830;151.202;2022-08-19T09:37:41;2.98;;;1.45;;
25667;SDS011;18003;-33.830;151.202;2022-08-19T09:40:12;3.25;;;1.80;;
25667;SDS011;18003;-33.830;151.202;2022-08-19T09:42:43;2.72;;;1.70;;
25667;SDS011;18003;-33.830;151.202;2022-08-19T09:47:43;2.60;;;1.60;;
25667;SDS011;18003;-33.830;151.202;2022-08-19T09:50:13;1.52;;;1.40;;
25667;SDS011;18003;-33.830;151.202;2022-08-19T09:52:44;4.12;;;1.95;;
25667;SDS011;18003;-33.830;151.202;2022-08-19T09:55:15;2.70;;;1.70;;
25667;SDS011;18003;-33.830;151.202;2022-08-19T09:57:45;2.75;;;1.82;;
25667;SDS011;18003;-33.830;151.202;2022-08-19T10:00:14;2.92;;;2.05;;
25667;SDS011;18003;-33.830;151.202;2022-08-19T10:02:44;5.00;;;2.27;;
25667;SDS011;18003;-33.830;151.202;2022-08-19T10:05:14;3.17;;;2.25;;
25667;SDS011;18003;-33.830;151.202;2022-08-19T10:08:01;3.70;;;2.95;;
25667;SDS011;18003;-33.830;151.202;2022-08-19T10:10:34;3.67;;;2.70;;
25667;SDS011;18003;-33.830;151.202;2022-08-19T10:15:31;3.42;;;2.50;;
25667;SDS011;18003;-33.830;151.202;2022-08-19T10:18:02;3.80;;;2.58;;
25667;SDS011;18003;-33.830;151.202;2022-08-19T10:20:32;3.47;;;2.25;;
25667;SDS011;18003;-33.830;151.202;2022-08-19T10:23:02;3.62;;;2.40;;
25667;SDS011;18003;-33.830;151.202;2022-08-19T10:25:32;3.10;;;2.70;;
25667;SDS011;18003;-33.830;151.202;2022-08-19T10:28:02;3.60;;;2.83;;
25667;SDS011;18003;-33.830;151.202;2022-08-19T10:30:33;3.27;;;2.58;;
25667;SDS011;18003;-33.830;151.202;2022-08-19T10:33:03;3.30;;;2.87;;
25667;SDS011;18003;-33.830;151.202;2022-08-19T10:35:33;4.20;;;3.15;;
25667;SDS011;18003;-33.830;151.202;2022-08-19T10:38:04;5.05;;;3.17;;
25667;SDS011;18003;-33.830;151.202;2022-08-19T10:40:34;4.42;;;3.25;;
25667;SDS011;18003;-33.830;151.202;2022-08-19T10:43:04;4.78;;;3.30;;
25667;SDS011;18003;-33.830;151.202;2022-08-19T10:45:34;3.83;;;3.20;;
25667;SDS011;18003;-33.830;151.202;2022-08-19T10:48:08;4.85;;;3.02;;
25667;SDS011;18003;-33.830;151.202;2022-08-19T10:50:36;4.73;;;3.23;;
25667;SDS011;18003;-33.830;151.202;2022-08-19T10:53:22;3.02;;;2.70;;
25667;SDS011;18003;-33.830;151.202;2022-08-19T10:55:52;4.50;;;2.90;;
25667;SDS011;18003;-33.830;151.202;2022-08-19T10:58:39;4.03;;;2.67;;
25667;SDS011;18003;-33.830;151.202;2022-08-19T11:01:11;3.92;;;2.72;;
25667;SDS011;18003;-33.830;151.202;2022-08-19T11:03:40;3.08;;;2.50;;
25667;SDS011;18003;-33.830;151.202;2022-08-19T11:06:11;7.58;;;2.60;;
25667;SDS011;18003;-33.830;151.202;2022-08-19T11:08:41;3.47;;;2.40;;
25667;SDS011;18003;-33.830;151.202;2022-08-19T11:11:12;4.35;;;3.00;;
25667;SDS011;18003;-33.830;151.202;2022-08-19T11:13:42;3.52;;;2.70;;
25667;SDS011;18003;-33.830;151.202;2022-08-19T11:16:13;6.20;;;2.72;;
25667;SDS011;18003;-33.830;151.202;2022-08-19T11:23:49;4.17;;;2.67;;
25667;SDS011;18003;-33.830;151.202;2022-08-19T11:26:20;3.95;;;2.90;;
25667;SDS011;18003;-33.830;151.202;2022-08-19T11:28:51;3.87;;;2.80;;
25667;SDS011;18003;-33.830;151.202;2022-08-19T11:31:22;4.40;;;2.80;;
25667;SDS011;18003;-33.830;151.202;2022-08-19T11:33:55;4.00;;;2.70;;
25667;SDS011;18003;-33.830;151.202;2022-08-19T11:36:26;4.20;;;2.72;;
25667;SDS011;18003;-33.830;151.202;2022-08-19T11:38:57;3.42;;;2.65;;
25667;SDS011;18003;-33.830;151.202;2022-08-19T11:41:28;3.65;;;3.15;;
25667;SDS011;18003;-33.830;151.202;2022-08-19T11:44:17;3.42;;;3.10;;
25667;SDS011;18003;-33.830;151.202;2022-08-19T11:46:47;3.62;;;2.87;;
25667;SDS011;18003;-33.830;151.202;2022-08-19T11:49:21;3.75;;;2.65;;
25667;SDS011;18003;-33.830;151.202;2022-08-19T11:51:52;2.77;;;2.52;;
25667;SDS011;18003;-33.830;151.202;2022-08-19T11:54:23;3.40;;;2.77;;
25667;SDS011;18003;-33.830;151.202;2022-08-19T11:56:57;3.08;;;2.47;;
25667;SDS011;18003;-33.830;151.202;2022-08-19T11:59:28;3.17;;;2.50;;
25667;SDS011;18003;-33.830;151.202;2022-08-19T12:01:58;3.02;;;2.60;;
25667;SDS011;18003;-33.830;151.202;2022-08-19T12:04:29;5.55;;;2.85;;
25667;SDS011;18003;-33.830;151.202;2022-08-19T12:06:59;3.75;;;2.92;;
25667;SDS011;18003;-33.830;151.202;2022-08-19T12:09:33;3.83;;;2.35;;
25667;SDS011;18003;-33.830;151.202;2022-08-19T12:12:03;4.92;;;2.00;;
25667;SDS011;18003;-33.830;151.202;2022-08-19T12:14:33;2.67;;;2.17;;
25667;SDS011;18003;-33.830;151.202;2022-08-19T12:17:04;5.03;;;2.58;;
25667;SDS011;18003;-33.830;151.202;2022-08-19T12:19:36;4.37;;;2.30;;
25667;SDS011;18003;-33.830;151.202;2022-08-19T12:22:06;4.40;;;2.40;;
25667;SDS011;18003;-33.830;151.202;2022-08-19T12:24:36;3.90;;;2.37;;
25667;SDS011;18003;-33.830;151.202;2022-08-19T12:27:06;3.47;;;2.50;;
25667;SDS011;18003;-33.830;151.202;2022-08-19T12:29:36;2.70;;;2.10;;
25667;SDS011;18003;-33.830;151.202;2022-08-19T12:32:06;3.52;;;2.75;;
25667;SDS011;18003;-33.830;151.202;2022-08-19T12:34:36;2.85;;;2.42;;
25667;SDS011;18003;-33.830;151.202;2022-08-19T12:37:06;3.90;;;2.75;;
25667;SDS011;18003;-33.830;151.202;2022-08-19T12:39:38;2.60;;;2.40;;
25667;SDS011;18003;-33.830;151.202;2022-08-19T12:42:10;3.08;;;2.25;;
25667;SDS011;18003;-33.830;151.202;2022-08-19T12:44:41;3.72;;;2.52;;
25667;SDS011;18003;-33.830;151.202;2022-08-19T12:47:12;4.00;;;2.27;;
25667;SDS011;18003;-33.830;151.202;2022-08-19T12:52:18;4.00;;;2.58;;
25667;SDS011;18003;-33.830;151.202;2022-08-19T12:54:45;3.55;;;2.75;;
25667;SDS011;18003;-33.830;151.202;2022-08-19T12:57:16;4.25;;;3.02;;
25667;SDS011;18003;-33.830;151.202;2022-08-19T12:59:46;4.75;;;2.80;;
25667;SDS011;18003;-33.830;151.202;2022-08-19T13:02:17;3.17;;;2.63;;
25667;SDS011;18003;-33.830;151.202;2022-08-19T13:04:46;3.40;;;2.50;;
25667;SDS011;18003;-33.830;151.202;2022-08-19T13:07:16;3.15;;;2.15;;
25667;SDS011;18003;-33.830;151.202;2022-08-19T13:09:46;5.33;;;2.70;;
25667;SDS011;18003;-33.830;151.202;2022-08-19T13:12:17;3.80;;;2.20;;
25667;SDS011;18003;-33.830;151.202;2022-08-19T13:14:47;3.20;;;2.35;;
25667;SDS011;18003;-33.830;151.202;2022-08-19T13:17:17;4.35;;;2.67;;
25667;SDS011;18003;-33.830;151.202;2022-08-19T13:19:47;3.83;;;2.65;;
25667;SDS011;18003;-33.830;151.202;2022-08-19T13:22:17;3.20;;;2.60;;
25667;SDS011;18003;-33.830;151.202;2022-08-19T13:24:47;4.37;;;3.00;;
25667;SDS011;18003;-33.830;151.202;2022-08-19T13:27:16;4.35;;;3.00;;
25667;SDS011;18003;-33.830;151.202;2022-08-19T13:29:46;2.87;;;2.60;;
25667;SDS011;18003;-33.830;151.202;2022-08-19T13:32:33;4.60;;;2.55;;
25667;SDS011;18003;-33.830;151.202;2022-08-19T13:35:20;4.85;;;2.52;;
25667;SDS011;18003;-33.830;151.202;2022-08-19T13:37:51;4.62;;;2.50;;
25667;SDS011;18003;-33.830;151.202;2022-08-19T13:43:09;3.77;;;2.50;;
25667;SDS011;18003;-33.830;151.202;2022-08-19T13:45:40;2.42;;;2.20;;
25667;SDS011;18003;-33.830;151.202;2022-08-19T13:48:10;3.17;;;2.50;;
25667;SDS011;18003;-33.830;151.202;2022-08-19T13:50:42;3.33;;;2.30;;
25667;SDS011;18003;-33.830;151.202;2022-08-19T13:53:14;6.17;;;2.50;;
25667;SDS011;18003;-33.830;151.202;2022-08-19T13:55:44;4.03;;;2.35;;
25667;SDS011;18003;-33.830;151.202;2022-08-19T13:58:15;3.75;;;2.40;;
25667;SDS011;18003;-33.830;151.202;2022-08-19T14:00:45;6.53;;;2.70;;
25667;SDS011;18003;-33.830;151.202;2022-08-19T14:03:16;4.67;;;2.40;;
25667;SDS011;18003;-33.830;151.202;2022-08-19T14:05:46;4.05;;;2.22;;
25667;SDS011;18003;-33.830;151.202;2022-08-19T14:08:16;4.25;;;2.20;;
25667;SDS011;18003;-33.830;151.202;2022-08-19T14:10:46;3.55;;;2.50;;
25667;SDS011;18003;-33.830;151.202;2022-08-19T14:13:16;4.03;;;2.12;;
25667;SDS011;18003;-33.830;151.202;2022-08-19T14:15:47;2.10;;;1.90;;
25667;SDS011;18003;-33.830;151.202;2022-08-19T14:18:18;3.75;;;2.17;;
25667;SDS011;18003;-33.830;151.202;2022-08-19T14:20:48;5.65;;;2.50;;
25667;SDS011;18003;-33.830;151.202;2022-08-19T14:23:18;2.45;;;2.00;;
25667;SDS011;18003;-33.830;151.202;2022-08-19T14:25:48;3.90;;;2.17;;
25667;SDS011;18003;-33.830;151.202;2022-08-19T14:28:18;3.45;;;2.20;;
25667;SDS011;18003;-33.830;151.202;2022-08-19T14:30:48;5.58;;;2.55;;
25667;SDS011;18003;-33.830;151.202;2022-08-19T14:33:19;4.15;;;2.10;;
25667;SDS011;18003;-33.830;151.202;2022-08-19T14:35:49;3.65;;;2.05;;
25667;SDS011;18003;-33.830;151.202;2022-08-19T14:38:19;4.35;;;2.40;;
25667;SDS011;18003;-33.830;151.202;2022-08-19T14:40:49;4.92;;;2.60;;
25667;SDS011;18003;-33.830;151.202;2022-08-19T14:43:19;5.12;;;2.60;;
25667;SDS011;18003;-33.830;151.202;2022-08-19T14:45:49;3.52;;;2.35;;
25667;SDS011;18003;-33.830;151.202;2022-08-19T14:48:19;5.80;;;2.65;;
25667;SDS011;18003;-33.830;151.202;2022-08-19T14:50:49;6.53;;;2.45;;
25667;SDS011;18003;-33.830;151.202;2022-08-19T14:53:21;4.12;;;2.58;;
25667;SDS011;18003;-33.830;151.202;2022-08-19T14:55:52;3.27;;;2.15;;
25667;SDS011;18003;-33.830;151.202;2022-08-19T14:58:22;3.52;;;2.52;;
25667;SDS011;18003;-33.830;151.202;2022-08-19T15:00:52;4.42;;;2.37;;
25667;SDS011;18003;-33.830;151.202;2022-08-19T15:03:22;5.95;;;2.62;;
25667;SDS011;18003;-33.830;151.202;2022-08-19T15:05:52;3.15;;;2.50;;
25667;SDS011;18003;-33.830;151.202;2022-08-19T15:08:23;3.77;;;2.37;;
25667;SDS011;18003;-33.830;151.202;2022-08-19T15:10:54;5.42;;;2.60;;
25667;SDS011;18003;-33.830;151.202;2022-08-19T15:13:25;3.77;;;2.50;;
25667;SDS011;18003;-33.830;151.202;2022-08-19T15:15:56;6.28;;;2.58;;
25667;SDS011;18003;-33.830;151.202;2022-08-19T15:18:26;4.17;;;2.50;;
25667;SDS011;18003;-33.830;151.202;2022-08-19T15:20:56;4.78;;;2.80;;
25667;SDS011;18003;-33.830;151.202;2022-08-19T15:23:26;3.60;;;2.30;;
25667;SDS011;18003;-33.830;151.202;2022-08-19T15:25:56;2.90;;;2.30;;